Time;durP1;ratioP1;P1;durP2;ratioP2;P2;SDS_P1;SDS_P2;PMS_P1;PMS_P2;Temp;Humidity;BMP_temperature;BMP_pressure;BME280_temperature;BME280_humidity;BME280_pressure;Samples;Min_cycle;Max_cycle;Signal;HPM_P1;HPM_P2
2021/08/14 00:00:34;;;;;;;10.43;5.87;;;;;;;;;;4928107;29;20255;-75
2021/08/14 00:03:01;;;;;;;10.50;5.93;;;;;;;;;;4929881;29;20211;-76
2021/08/14 00:05:29;;;;;;;11.63;5.57;;;;;;;;;;4930911;29;20215;-75
2021/08/14 00:07:56;;;;;;;13.50;5.53;;;;;;;;;;4931974;29;20684;-76
2021/08/14 00:10:24;;;;;;;9.73;5.60;;;;;;;;;;4921757;29;20880;-76
2021/08/14 00:12:51;;;;;;;10.97;6.10;;;;;;;;;;4928445;29;20717;-75
2021/08/14 00:15:18;;;;;;;9.70;5.30;;;;;;;;;;4926004;29;20226;-76
2021/08/14 00:17:45;;;;;;;9.87;6.03;;;;;;;;;;4930519;29;20211;-76
2021/08/14 00:20:13;;;;;;;10.90;6.03;;;;;;;;;;4932243;29;20327;-75
2021/08/14 00:22:41;;;;;;;10.00;5.93;;;;;;;;;;4925961;29;20221;-76
2021/08/14 00:25:09;;;;;;;12.37;5.83;;;;;;;;;;4926518;29;20211;-75
2021/08/14 00:27:36;;;;;;;11.13;5.90;;;;;;;;;;4925502;29;20215;-75
2021/08/14 00:30:03;;;;;;;9.90;5.70;;;;;;;;;;4926350;29;20230;-76
2021/08/14 00:32:30;;;;;;;9.43;5.50;;;;;;;;;;4925491;29;20483;-75
2021/08/14 00:34:57;;;;;;;13.77;5.77;;;;;;;;;;4928103;29;20213;-75
2021/08/14 00:37:24;;;;;;;9.17;5.20;;;;;;;;;;4919927;29;20288;-76
2021/08/14 00:39:53;;;;;;;9.17;5.17;;;;;;;;;;4923932;29;20233;-75
2021/08/14 00:42:20;;;;;;;12.30;5.30;;;;;;;;;;4925355;29;20212;-75
2021/08/14 00:44:47;;;;;;;11.77;5.80;;;;;;;;;;4927059;29;20242;-75
2021/08/14 00:47:14;;;;;;;12.43;5.20;;;;;;;;;;4925588;29;20305;-76
2021/08/14 00:49:42;;;;;;;11.90;5.53;;;;;;;;;;4923480;29;20227;-75
2021/08/14 00:52:09;;;;;;;11.30;5.70;;;;;;;;;;4926655;29;20299;-75
2021/08/14 00:54:36;;;;;;;8.00;5.23;;;;;;;;;;4925326;29;20203;-75
2021/08/14 00:57:05;;;;;;;11.17;5.57;;;;;;;;;;4926356;29;20207;-75
2021/08/14 00:59:32;;;;;;;10.43;5.93;;;;;;;;;;4925018;29;20307;-76
2021/08/14 01:01:59;;;;;;;13.00;5.00;;;;;;;;;;4923852;29;20298;-76
2021/08/14 01:04:26;;;;;;;10.53;5.20;;;;;;;;;;4922059;29;20211;-75
2021/08/14 01:06:53;;;;;;;8.40;5.30;;;;;;;;;;4925506;29;20307;-76
2021/08/14 01:09:20;;;;;;;11.80;6.17;;;;;;;;;;4926480;29;20210;-76
2021/08/14 01:11:47;;;;;;;9.80;5.70;;;;;;;;;;4920921;29;20223;-76
2021/08/14 01:14:16;;;;;;;8.63;5.20;;;;;;;;;;4923141;29;20218;-75
2021/08/14 01:16:43;;;;;;;9.97;5.03;;;;;;;;;;4927360;29;20203;-75
2021/08/14 01:19:10;;;;;;;10.13;5.53;;;;;;;;;;4923570;29;20248;-75
2021/08/14 01:21:37;;;;;;;10.03;6.00;;;;;;;;;;4922225;29;20219;-75
2021/08/14 01:24:05;;;;;;;12.23;5.40;;;;;;;;;;4921223;29;20210;-76
2021/08/14 01:26:33;;;;;;;11.17;5.70;;;;;;;;;;4923942;29;20231;-76
2021/08/14 01:29:01;;;;;;;10.00;5.40;;;;;;;;;;4924049;29;20203;-76
2021/08/14 01:31:29;;;;;;;10.00;5.63;;;;;;;;;;4922623;29;20228;-75
2021/08/14 01:33:57;;;;;;;8.73;5.30;;;;;;;;;;4927089;29;20210;-75
2021/08/14 01:36:24;;;;;;;16.00;6.53;;;;;;;;;;4924070;29;20210;-76
2021/08/14 01:38:52;;;;;;;14.57;7.07;;;;;;;;;;4924671;29;20233;-76
2021/08/14 01:41:20;;;;;;;14.03;6.70;;;;;;;;;;4922424;29;20218;-75
2021/08/14 01:43:51;;;;;;;14.57;6.07;;;;;;;;;;4925188;29;20290;-75
2021/08/14 01:46:20;;;;;;;10.80;5.40;;;;;;;;;;4925275;29;20215;-76
2021/08/14 01:48:47;;;;;;;9.07;5.50;;;;;;;;;;4927191;29;20216;-76
2021/08/14 01:51:14;;;;;;;11.80;6.03;;;;;;;;;;4925749;29;20228;-76
2021/08/14 01:53:46;;;;;;;10.83;5.83;;;;;;;;;;4925727;29;20634;-76
2021/08/14 01:56:13;;;;;;;8.53;5.23;;;;;;;;;;4926117;29;20199;-76
2021/08/14 01:58:40;;;;;;;11.03;5.60;;;;;;;;;;4927591;29;20294;-75
2021/08/14 02:01:07;;;;;;;10.37;5.67;;;;;;;;;;4925046;29;20233;-76
2021/08/14 02:03:35;;;;;;;11.50;5.70;;;;;;;;;;4927842;29;20209;-75
2021/08/14 02:06:03;;;;;;;11.67;5.83;;;;;;;;;;4921793;29;20211;-75
2021/08/14 02:08:30;;;;;;;16.73;5.93;;;;;;;;;;4924423;29;20207;-75
2021/08/14 02:10:57;;;;;;;9.90;5.70;;;;;;;;;;4927524;29;20223;-76
2021/08/14 02:13:24;;;;;;;9.87;5.40;;;;;;;;;;4926504;29;20210;-76
2021/08/14 02:15:52;;;;;;;11.93;5.87;;;;;;;;;;4924849;29;20899;-76
2021/08/14 02:18:19;;;;;;;8.83;5.57;;;;;;;;;;4927833;29;20202;-76
2021/08/14 02:20:47;;;;;;;11.93;5.50;;;;;;;;;;4928641;29;20235;-76
2021/08/14 02:23:14;;;;;;;10.13;5.77;;;;;;;;;;4934006;29;20704;-76
2021/08/14 02:25:41;;;;;;;10.37;5.40;;;;;;;;;;4926741;29;20210;-76
2021/08/14 02:28:09;;;;;;;13.57;5.80;;;;;;;;;;4929190;29;20221;-75
2021/08/14 02:30:36;;;;;;;9.23;5.03;;;;;;;;;;4935030;29;20223;-75
2021/08/14 02:33:03;;;;;;;13.33;5.50;;;;;;;;;;4929831;29;20230;-76
2021/08/14 02:35:30;;;;;;;11.17;5.33;;;;;;;;;;4925288;29;20217;-75
2021/08/14 02:37:59;;;;;;;10.80;5.03;;;;;;;;;;4925521;29;20218;-76
2021/08/14 02:40:26;;;;;;;13.27;5.43;;;;;;;;;;4923133;29;20324;-76
2021/08/14 02:42:53;;;;;;;13.40;5.80;;;;;;;;;;4927288;29;20302;-76
2021/08/14 02:45:20;;;;;;;13.53;5.10;;;;;;;;;;4923614;29;20200;-75
2021/08/14 02:47:47;;;;;;;11.90;5.53;;;;;;;;;;4923929;29;20215;-75
2021/08/14 02:50:14;;;;;;;9.43;5.30;;;;;;;;;;4922914;29;20270;-75
2021/08/14 02:52:41;;;;;;;10.27;5.03;;;;;;;;;;4926761;29;20245;-75
2021/08/14 02:55:10;;;;;;;10.30;5.20;;;;;;;;;;4929340;29;20215;-75
2021/08/14 02:57:38;;;;;;;8.37;5.13;;;;;;;;;;4929337;29;20215;-75
2021/08/14 03:00:05;;;;;;;12.60;5.80;;;;;;;;;;4924327;29;20233;-75
2021/08/14 03:02:32;;;;;;;10.47;5.73;;;;;;;;;;4925239;29;20293;-75
2021/08/14 03:04:59;;;;;;;10.03;5.53;;;;;;;;;;4925048;29;20707;-75
2021/08/14 03:07:26;;;;;;;10.77;5.83;;;;;;;;;;4928497;29;20207;-75
2021/08/14 03:09:53;;;;;;;9.70;5.40;;;;;;;;;;4926899;29;20227;-76
2021/08/14 03:12:22;;;;;;;10.73;5.37;;;;;;;;;;4927715;29;20204;-76
2021/08/14 03:14:49;;;;;;;8.50;5.37;;;;;;;;;;4923415;29;20758;-75
2021/08/14 03:17:16;;;;;;;10.93;5.67;;;;;;;;;;4927372;29;20590;-75
2021/08/14 03:19:43;;;;;;;14.33;5.20;;;;;;;;;;4924436;29;20220;-75
2021/08/14 03:22:11;;;;;;;7.77;4.80;;;;;;;;;;4926250;29;20207;-75
2021/08/14 03:24:38;;;;;;;8.23;4.93;;;;;;;;;;4924993;29;20212;-76
2021/08/14 03:27:06;;;;;;;8.03;5.17;;;;;;;;;;4922982;29;20314;-75
2021/08/14 03:29:35;;;;;;;9.33;4.97;;;;;;;;;;4926191;29;20275;-76
2021/08/14 03:32:02;;;;;;;9.20;5.80;;;;;;;;;;4926316;29;20234;-76
2021/08/14 03:34:29;;;;;;;8.60;5.30;;;;;;;;;;4922762;29;20245;-76
2021/08/14 03:36:56;;;;;;;8.03;5.10;;;;;;;;;;4923168;29;20211;-76
2021/08/14 03:39:23;;;;;;;10.80;6.03;;;;;;;;;;4928821;29;20713;-76
2021/08/14 03:41:50;;;;;;;8.13;5.30;;;;;;;;;;4927865;29;20229;-76
2021/08/14 03:44:17;;;;;;;8.90;4.97;;;;;;;;;;4923826;29;20218;-75
2021/08/14 03:49:15;;;;;;;10.07;5.67;;;;;;;;;;4939516;28;20219;-74
2021/08/14 03:51:42;;;;;;;8.93;5.37;;;;;;;;;;4926156;29;20317;-74
2021/08/14 03:54:09;;;;;;;9.30;4.87;;;;;;;;;;4922516;29;20218;-74
2021/08/14 03:56:37;;;;;;;10.10;5.53;;;;;;;;;;4919426;29;20210;-74
2021/08/14 03:59:04;;;;;;;11.83;5.77;;;;;;;;;;4917868;29;20219;-75
2021/08/14 04:01:32;;;;;;;10.20;4.97;;;;;;;;;;4920932;29;20233;-74
2021/08/14 04:04:00;;;;;;;14.90;5.47;;;;;;;;;;4919768;29;20291;-74
2021/08/14 04:06:28;;;;;;;10.03;5.07;;;;;;;;;;4923129;29;20678;-76
2021/08/14 04:08:55;;;;;;;13.37;5.20;;;;;;;;;;4919932;29;20210;-74
2021/08/14 04:11:22;;;;;;;11.47;4.73;;;;;;;;;;4918962;29;20444;-74
2021/08/14 04:13:49;;;;;;;13.27;5.30;;;;;;;;;;4915332;29;20199;-75
2021/08/14 04:16:17;;;;;;;15.70;5.03;;;;;;;;;;4918380;29;20204;-74
2021/08/14 04:18:44;;;;;;;10.00;5.00;;;;;;;;;;4918834;29;20204;-74
2021/08/14 04:21:11;;;;;;;8.13;4.60;;;;;;;;;;4918896;29;20242;-74
2021/08/14 04:23:39;;;;;;;14.23;5.80;;;;;;;;;;4915437;29;20203;-74
2021/08/14 04:26:07;;;;;;;12.87;5.00;;;;;;;;;;4921568;29;20218;-74
2021/08/14 04:28:34;;;;;;;9.97;5.17;;;;;;;;;;4914002;29;20246;-74
2021/08/14 04:31:01;;;;;;;10.13;5.53;;;;;;;;;;4920166;29;20604;-74
2021/08/14 04:33:28;;;;;;;11.87;5.20;;;;;;;;;;4916559;29;20207;-74
2021/08/14 04:35:55;;;;;;;10.57;5.13;;;;;;;;;;4921243;29;20215;-74
2021/08/14 04:38:22;;;;;;;8.57;5.00;;;;;;;;;;4918443;29;20307;-74
2021/08/14 04:40:51;;;;;;;11.87;5.50;;;;;;;;;;4920734;29;20591;-74
2021/08/14 04:43:18;;;;;;;8.43;5.13;;;;;;;;;;4925816;29;20235;-74
2021/08/14 04:45:45;;;;;;;9.27;4.97;;;;;;;;;;4925471;29;20637;-74
2021/08/14 04:48:12;;;;;;;11.63;4.83;;;;;;;;;;4921822;29;20780;-74
2021/08/14 04:50:40;;;;;;;7.53;4.63;;;;;;;;;;4919175;29;20223;-74
2021/08/14 04:53:07;;;;;;;10.50;5.23;;;;;;;;;;4918696;29;20222;-74
2021/08/14 04:55:34;;;;;;;12.97;5.53;;;;;;;;;;4915410;29;20208;-74
2021/08/14 04:58:02;;;;;;;9.90;4.83;;;;;;;;;;4920837;29;20235;-74
2021/08/14 05:00:30;;;;;;;8.77;4.80;;;;;;;;;;4917037;29;20681;-74
2021/08/14 05:02:57;;;;;;;11.17;5.30;;;;;;;;;;4920269;29;20204;-74
2021/08/14 05:05:24;;;;;;;8.77;5.20;;;;;;;;;;4922305;29;20743;-76
2021/08/14 05:07:51;;;;;;;11.83;5.40;;;;;;;;;;4918917;29;20214;-76
2021/08/14 05:10:18;;;;;;;9.77;4.47;;;;;;;;;;4920341;29;20323;-76
2021/08/14 05:12:45;;;;;;;8.60;4.77;;;;;;;;;;4918176;29;20211;-76
2021/08/14 05:15:14;;;;;;;8.33;4.20;;;;;;;;;;4920979;29;20210;-76
2021/08/14 05:17:41;;;;;;;7.10;4.57;;;;;;;;;;4921101;29;20211;-76
2021/08/14 05:20:09;;;;;;;11.23;4.57;;;;;;;;;;4920278;29;20739;-76
2021/08/14 05:22:36;;;;;;;7.87;4.13;;;;;;;;;;4921815;29;20210;-76
2021/08/14 05:25:03;;;;;;;11.23;4.77;;;;;;;;;;4924283;29;20215;-76
2021/08/14 05:27:30;;;;;;;6.80;4.33;;;;;;;;;;4921023;29;20992;-76
2021/08/14 05:29:57;;;;;;;10.23;4.67;;;;;;;;;;4922226;29;20317;-77
2021/08/14 05:32:26;;;;;;;9.70;4.27;;;;;;;;;;4919178;29;20207;-74
2021/08/14 05:34:53;;;;;;;9.93;4.00;;;;;;;;;;4921530;29;20211;-76
2021/08/14 05:37:20;;;;;;;9.00;4.30;;;;;;;;;;4920697;29;20214;-73
2021/08/14 05:39:48;;;;;;;8.67;4.20;;;;;;;;;;4920580;29;20206;-76
2021/08/14 05:42:15;;;;;;;5.83;3.90;;;;;;;;;;4920726;29;20215;-76
2021/08/14 05:44:43;;;;;;;7.10;4.10;;;;;;;;;;4920850;29;20207;-76
2021/08/14 05:47:10;;;;;;;9.80;4.27;;;;;;;;;;4920754;29;20649;-76
2021/08/14 05:49:48;;;;;;;9.73;3.90;;;;;;;;;;4925821;29;20212;-74
2021/08/14 05:52:15;;;;;;;10.93;4.27;;;;;;;;;;4920109;29;20296;-74
2021/08/14 05:54:42;;;;;;;6.33;4.47;;;;;;;;;;4924425;29;20868;-75
2021/08/14 05:57:16;;;;;;;7.53;4.30;;;;;;;;;;4920796;29;20253;-74
2021/08/14 05:59:44;;;;;;;8.63;3.37;;;;;;;;;;4918783;29;20255;-75
2021/08/14 06:02:11;;;;;;;7.50;3.90;;;;;;;;;;4922218;29;20242;-74
2021/08/14 06:04:38;;;;;;;7.67;3.80;;;;;;;;;;4922554;29;20218;-75
2021/08/14 06:07:07;;;;;;;9.00;3.73;;;;;;;;;;4919686;29;20523;-75
2021/08/14 06:09:34;;;;;;;7.87;4.47;;;;;;;;;;4919982;28;20211;-75
2021/08/14 06:12:01;;;;;;;8.70;3.97;;;;;;;;;;4918039;29;20203;-75
2021/08/14 06:14:28;;;;;;;11.67;4.20;;;;;;;;;;4920818;29;20606;-75
2021/08/14 06:16:55;;;;;;;9.67;4.17;;;;;;;;;;4918330;29;20206;-75
2021/08/14 06:19:22;;;;;;;7.23;4.27;;;;;;;;;;4919944;29;20226;-74
2021/08/14 06:21:50;;;;;;;9.67;4.93;;;;;;;;;;4920664;29;20270;-75
2021/08/14 06:24:18;;;;;;;7.00;4.57;;;;;;;;;;4922671;29;20212;-77
2021/08/14 06:26:45;;;;;;;7.67;4.20;;;;;;;;;;4922983;29;20211;-76
2021/08/14 06:29:12;;;;;;;7.97;4.13;;;;;;;;;;4920881;29;20211;-76
2021/08/14 06:31:40;;;;;;;6.73;3.87;;;;;;;;;;4918309;29;20326;-76
2021/08/14 06:34:07;;;;;;;6.10;4.03;;;;;;;;;;4917883;29;20226;-76
2021/08/14 06:36:34;;;;;;;10.70;3.93;;;;;;;;;;4919286;29;20243;-76
2021/08/14 06:39:01;;;;;;;6.43;4.00;;;;;;;;;;4916774;29;20204;-76
2021/08/14 06:41:29;;;;;;;5.73;3.73;;;;;;;;;;4918509;29;20334;-76
2021/08/14 06:43:59;;;;;;;9.57;4.17;;;;;;;;;;4918791;29;20210;-76
2021/08/14 06:46:26;;;;;;;12.70;3.70;;;;;;;;;;4917191;29;20210;-76
2021/08/14 06:48:53;;;;;;;6.83;3.67;;;;;;;;;;4921216;29;20217;-76
2021/08/14 06:51:21;;;;;;;6.90;3.70;;;;;;;;;;4918051;29;20317;-76
2021/08/14 06:53:48;;;;;;;6.90;3.70;;;;;;;;;;4924146;29;20235;-75
2021/08/14 06:56:16;;;;;;;7.50;4.00;;;;;;;;;;4917377;29;20246;-75
2021/08/14 06:58:44;;;;;;;7.70;3.90;;;;;;;;;;4922370;29;20207;-75
2021/08/14 07:01:11;;;;;;;4.43;3.03;;;;;;;;;;4919429;29;20618;-75
2021/08/14 07:03:38;;;;;;;5.87;4.07;;;;;;;;;;4920817;29;20215;-75
2021/08/14 07:06:06;;;;;;;9.60;4.17;;;;;;;;;;4921452;29;20298;-75
2021/08/14 07:08:33;;;;;;;7.37;4.10;;;;;;;;;;4919728;29;20222;-75
2021/08/14 07:11:00;;;;;;;8.70;4.73;;;;;;;;;;4918722;29;20306;-76
2021/08/14 07:13:27;;;;;;;7.30;4.00;;;;;;;;;;4919040;29;20211;-76
2021/08/14 07:15:56;;;;;;;12.65;4.22;;;;;;;;;;4921680;29;20211;-75
2021/08/14 07:18:23;;;;;;;7.90;4.13;;;;;;;;;;4919455;29;20287;-76
2021/08/14 07:20:50;;;;;;;7.85;4.03;;;;;;;;;;4923486;29;20684;-75
2021/08/14 07:23:17;;;;;;;9.90;4.25;;;;;;;;;;4934078;29;20211;-76
2021/08/14 07:25:44;;;;;;;8.07;4.30;;;;;;;;;;4925821;29;20746;-76
2021/08/14 07:28:11;;;;;;;8.02;3.70;;;;;;;;;;4923953;29;20280;-75
2021/08/14 07:30:39;;;;;;;7.97;3.90;;;;;;;;;;4924382;29;20225;-75
2021/08/14 07:33:07;;;;;;;9.70;4.65;;;;;;;;;;4919443;29;20212;-75
2021/08/14 07:35:34;;;;;;;6.15;3.60;;;;;;;;;;4917204;29;20204;-75
2021/08/14 07:38:02;;;;;;;9.20;4.20;;;;;;;;;;4919747;29;20700;-75
2021/08/14 07:40:29;;;;;;;6.78;4.30;;;;;;;;;;4918415;29;20827;-75
2021/08/14 07:42:57;;;;;;;6.57;4.38;;;;;;;;;;4919486;29;20215;-76
2021/08/14 07:45:25;;;;;;;8.15;4.05;;;;;;;;;;4917215;29;20266;-76
2021/08/14 07:47:52;;;;;;;9.43;3.85;;;;;;;;;;4919994;29;20230;-76
2021/08/14 07:50:22;;;;;;;6.32;4.07;;;;;;;;;;4920756;29;20232;-75
2021/08/14 07:52:49;;;;;;;10.75;4.10;;;;;;;;;;4920715;29;20697;-76
2021/08/14 07:55:16;;;;;;;7.60;4.57;;;;;;;;;;4922412;29;20679;-75
2021/08/14 07:58:02;;;;;;;;;;;;;;;;;;;;;
2021/08/14 08:00:30;;;;;;;8.05;4.10;;;;;;;;;;4919883;29;20221;-76
2021/08/14 08:02:57;;;;;;;7.68;4.20;;;;;;;;;;4921806;29;20290;-76
2021/08/14 08:05:26;;;;;;;11.93;4.20;;;;;;;;;;4922933;29;20217;-76
2021/08/14 08:07:53;;;;;;;11.07;4.60;;;;;;;;;;4924343;29;20267;-76
2021/08/14 08:10:21;;;;;;;11.40;4.30;;;;;;;;;;4918787;29;20318;-75
2021/08/14 08:12:50;;;;;;;11.13;3.97;;;;;;;;;;4918954;29;20588;-75
2021/08/14 08:15:17;;;;;;;8.90;4.13;;;;;;;;;;4922583;29;20554;-75
2021/08/14 08:17:44;;;;;;;11.57;4.07;;;;;;;;;;4920335;29;20215;-76
2021/08/14 08:20:12;;;;;;;11.35;3.92;;;;;;;;;;4922960;29;20610;-76
2021/08/14 08:22:41;;;;;;;10.65;4.28;;;;;;;;;;4925279;29;20232;-75
2021/08/14 08:25:09;;;;;;;13.25;3.97;;;;;;;;;;4927304;29;20891;-76
2021/08/14 08:27:37;;;;;;;7.50;3.72;;;;;;;;;;4925619;29;20199;-76
2021/08/14 08:30:05;;;;;;;7.43;3.85;;;;;;;;;;4926629;29;20318;-76
2021/08/14 08:32:32;;;;;;;8.10;3.75;;;;;;;;;;4926919;29;20690;-76
2021/08/14 08:34:59;;;;;;;12.77;3.92;;;;;;;;;;4922443;29;20206;-74
2021/08/14 08:37:27;;;;;;;7.80;3.75;;;;;;;;;;4915969;29;20419;-75
2021/08/14 08:39:56;;;;;;;6.45;3.85;;;;;;;;;;4920575;29;20525;-76
2021/08/14 08:42:23;;;;;;;7.97;4.03;;;;;;;;;;4918215;29;20237;-76
2021/08/14 08:44:51;;;;;;;17.10;3.85;;;;;;;;;;4920192;29;20209;-76
2021/08/14 08:47:19;;;;;;;6.43;3.67;;;;;;;;;;4919311;29;20224;-76
2021/08/14 08:49:52;;;;;;;8.95;3.80;;;;;;;;;;4918931;29;20206;-76
2021/08/14 08:52:19;;;;;;;8.10;3.72;;;;;;;;;;4916853;29;20298;-76
2021/08/14 08:54:46;;;;;;;8.43;3.40;;;;;;;;;;4918920;29;20701;-76
2021/08/14 08:57:15;;;;;;;7.15;3.42;;;;;;;;;;4918728;29;20295;-77
2021/08/14 08:59:42;;;;;;;5.65;3.25;;;;;;;;;;4923606;29;20230;-77
2021/08/14 09:02:33;;;;;;;7.22;3.10;;;;;;;;;;4919547;29;20240;-76
2021/08/14 09:05:09;;;;;;;4.75;2.95;;;;;;;;;;4914298;29;20205;-76
2021/08/14 09:07:36;;;;;;;7.10;3.42;;;;;;;;;;4918679;29;20203;-76
2021/08/14 09:10:04;;;;;;;5.22;3.25;;;;;;;;;;4918992;29;20290;-76
2021/08/14 09:12:35;;;;;;;6.80;3.20;;;;;;;;;;4921892;29;20205;-76
2021/08/14 09:15:02;;;;;;;5.65;3.33;;;;;;;;;;4922498;29;20243;-76
2021/08/14 09:17:30;;;;;;;5.10;3.20;;;;;;;;;;4916079;29;20674;-76
2021/08/14 09:20:08;;;;;;;5.87;3.47;;;;;;;;;;4920720;29;20220;-76
2021/08/14 09:22:35;;;;;;;7.43;3.10;;;;;;;;;;4920660;29;20219;-75
2021/08/14 09:25:12;;;;;;;6.93;3.40;;;;;;;;;;4921960;29;20226;-75
2021/08/14 09:27:50;;;;;;;10.60;3.30;;;;;;;;;;4916820;29;20574;-75
2021/08/14 09:30:17;;;;;;;5.93;3.20;;;;;;;;;;4916107;29;20235;-75
2021/08/14 09:33:13;;;;;;;5.03;2.93;;;;;;;;;;4923412;29;20207;-75
2021/08/14 09:35:40;;;;;;;11.03;3.57;;;;;;;;;;4916198;29;20204;-75
2021/08/14 09:38:08;;;;;;;5.80;3.77;;;;;;;;;;4923104;29;20236;-75
2021/08/14 09:40:41;;;;;;;5.27;3.10;;;;;;;;;;4917635;29;20234;-76
2021/08/14 09:46:13;;;;;;;6.13;3.43;;;;;;;;;;4921430;29;20214;-75
2021/08/14 09:48:56;;;;;;;5.77;3.17;;;;;;;;;;4917605;29;20210;-75
2021/08/14 09:51:27;;;;;;;7.40;3.10;;;;;;;;;;4925046;29;20416;-74
2021/08/14 09:54:04;;;;;;;5.40;3.00;;;;;;;;;;4923594;29;20682;-76
2021/08/14 09:56:34;;;;;;;4.63;2.80;;;;;;;;;;4924818;29;20217;-76
2021/08/14 09:59:02;;;;;;;4.73;2.97;;;;;;;;;;4917855;29;20293;-75
2021/08/14 10:01:31;;;;;;;5.17;3.10;;;;;;;;;;4920514;29;20227;-76
2021/08/14 10:03:59;;;;;;;6.43;2.77;;;;;;;;;;4919617;29;20199;-76
2021/08/14 10:06:26;;;;;;;7.33;3.10;;;;;;;;;;4928387;29;20626;-76
2021/08/14 10:08:54;;;;;;;8.80;3.07;;;;;;;;;;4921205;29;20255;-75
2021/08/14 10:11:21;;;;;;;4.23;2.60;;;;;;;;;;4927566;29;20237;-75
2021/08/14 10:13:49;;;;;;;6.23;3.07;;;;;;;;;;4922245;29;20222;-75
2021/08/14 10:16:16;;;;;;;7.23;2.77;;;;;;;;;;4917305;29;20246;-75
2021/08/14 10:18:46;;;;;;;6.53;2.80;;;;;;;;;;4922165;29;20207;-75
2021/08/14 10:21:16;;;;;;;4.97;2.77;;;;;;;;;;4915548;29;20231;-75
2021/08/14 10:23:43;;;;;;;5.90;2.67;;;;;;;;;;4914970;29;20294;-75
2021/08/14 10:26:11;;;;;;;5.60;2.37;;;;;;;;;;4913676;29;20215;-76
2021/08/14 10:29:06;;;;;;;4.83;2.80;;;;;;;;;;4909310;29;20213;-77
2021/08/14 10:31:46;;;;;;;6.97;2.80;;;;;;;;;;4913853;29;20314;-76
2021/08/14 10:34:34;;;;;;;5.77;3.27;;;;;;;;;;4919251;29;20666;-76
2021/08/14 10:37:01;;;;;;;5.43;2.70;;;;;;;;;;4923101;29;20289;-77
2021/08/14 10:39:30;;;;;;;6.13;2.47;;;;;;;;;;4925027;29;20211;-78
2021/08/14 10:41:58;;;;;;;5.27;2.60;;;;;;;;;;4920491;29;20227;-78
2021/08/14 10:44:56;;;;;;;5.07;2.67;;;;;;;;;;4924865;29;20211;-79
2021/08/14 10:47:42;;;;;;;6.77;2.47;;;;;;;;;;4872558;29;20223;-78
2021/08/14 10:50:10;;;;;;;4.60;2.83;;;;;;;;;;4920942;29;20344;-78
2021/08/14 10:52:38;;;;;;;5.43;2.77;;;;;;;;;;4927088;29;20242;-78
2021/08/14 10:55:08;;;;;;;5.50;2.50;;;;;;;;;;4924405;29;20211;-78
2021/08/14 10:57:42;;;;;;;7.13;2.50;;;;;;;;;;4929347;29;20213;-78
2021/08/14 11:00:15;;;;;;;6.80;2.47;;;;;;;;;;4924595;29;20498;-78
2021/08/14 11:05:55;;;;;;;7.17;2.90;;;;;;;;;;4926937;29;20229;-78
2021/08/14 11:08:31;;;;;;;4.93;2.57;;;;;;;;;;4904568;29;20294;-78
2021/08/14 11:11:35;;;;;;;6.20;2.50;;;;;;;;;;4921572;29;20239;-80
2021/08/14 11:14:12;;;;;;;3.73;2.37;;;;;;;;;;4924402;29;20207;-76
2021/08/14 11:16:58;;;;;;;4.10;2.87;;;;;;;;;;4922818;29;20199;-76
2021/08/14 11:19:42;;;;;;;5.27;2.70;;;;;;;;;;4922733;29;20215;-76
2021/08/14 11:22:34;;;;;;;5.57;2.50;;;;;;;;;;4923745;29;20321;-76
2021/08/14 11:25:04;;;;;;;4.90;2.83;;;;;;;;;;4925918;29;20235;-76
2021/08/14 11:27:33;;;;;;;7.53;3.07;;;;;;;;;;4922040;29;21435;-76
2021/08/14 11:30:03;;;;;;;7.00;3.10;;;;;;;;;;4925021;29;20670;-76
2021/08/14 11:32:30;;;;;;;4.67;2.67;;;;;;;;;;4923023;29;20207;-77
2021/08/14 11:34:58;;;;;;;6.67;2.70;;;;;;;;;;4923428;29;20251;-76
2021/08/14 11:37:25;;;;;;;5.10;2.80;;;;;;;;;;4923662;29;20647;-76
2021/08/14 11:40:00;;;;;;;5.60;2.50;;;;;;;;;;4924277;29;20518;-74
2021/08/14 11:42:29;;;;;;;6.63;2.73;;;;;;;;;;4920867;29;20937;-74
2021/08/14 11:44:57;;;;;;;5.33;2.80;;;;;;;;;;4923164;29;20223;-74
2021/08/14 11:47:32;;;;;;;3.90;2.60;;;;;;;;;;4923032;29;20610;-74
2021/08/14 11:50:17;;;;;;;5.43;3.00;;;;;;;;;;4922340;29;20222;-75
2021/08/14 11:52:48;;;;;;;4.50;3.10;;;;;;;;;;4924670;29;20210;-75
2021/08/14 11:55:15;;;;;;;7.27;2.70;;;;;;;;;;4924127;29;20752;-75
2021/08/14 11:57:47;;;;;;;6.53;3.00;;;;;;;;;;4921884;29;20212;-75
2021/08/14 12:00:25;;;;;;;8.50;3.23;;;;;;;;;;4923194;29;20235;-74
2021/08/14 12:03:04;;;;;;;6.17;2.53;;;;;;;;;;4921271;29;20227;-75
2021/08/14 12:05:38;;;;;;;4.23;2.50;;;;;;;;;;4917287;29;20212;-76
2021/08/14 12:08:06;;;;;;;4.23;2.73;;;;;;;;;;4923574;29;20245;-75
2021/08/14 12:10:33;;;;;;;5.43;3.10;;;;;;;;;;4923217;29;20227;-76
2021/08/14 12:13:02;;;;;;;7.83;4.40;;;;;;;;;;4923233;29;20255;-76
2021/08/14 12:15:39;;;;;;;4.63;2.73;;;;;;;;;;4922634;29;20211;-75
2021/08/14 12:18:07;;;;;;;4.77;2.70;;;;;;;;;;4924707;29;20210;-75
2021/08/14 12:20:35;;;;;;;6.20;2.60;;;;;;;;;;4922167;29;20223;-76
2021/08/14 12:23:22;;;;;;;9.33;2.80;;;;;;;;;;4922077;29;20238;-73
2021/08/14 12:25:50;;;;;;;4.90;2.70;;;;;;;;;;4924679;29;20207;-76
2021/08/14 12:28:19;;;;;;;3.90;2.70;;;;;;;;;;4921038;29;20204;-76
2021/08/14 12:30:46;;;;;;;9.23;3.03;;;;;;;;;;4922681;29;20255;-74
2021/08/14 12:33:24;;;;;;;4.33;2.87;;;;;;;;;;4924832;29;20282;-75
2021/08/14 12:36:04;;;;;;;6.47;2.90;;;;;;;;;;4923110;29;20207;-76
2021/08/14 12:38:32;;;;;;;4.77;2.97;;;;;;;;;;4924152;29;20210;-75
2021/08/14 12:40:59;;;;;;;4.70;2.87;;;;;;;;;;4925397;29;20223;-76
2021/08/14 12:43:28;;;;;;;4.10;2.70;;;;;;;;;;4924774;29;20837;-76
2021/08/14 12:48:32;;;;;;;6.17;2.97;;;;;;;;;;4937261;29;20234;-75
2021/08/14 12:50:59;;;;;;;3.63;2.40;;;;;;;;;;4945681;28;20259;-76
2021/08/14 12:53:27;;;;;;;5.90;3.00;;;;;;;;;;4936140;29;20425;-76
2021/08/14 12:58:40;;;;;;;7.60;3.20;;;;;;;;;;4918086;29;20493;-76
2021/08/14 13:01:22;;;;;;;4.40;2.80;;;;;;;;;;4922590;29;20701;-76
2021/08/14 13:03:49;;;;;;;4.63;2.90;;;;;;;;;;4921878;29;20234;-76
2021/08/14 13:06:16;;;;;;;4.03;2.70;;;;;;;;;;4919262;29;20207;-75
2021/08/14 13:08:43;;;;;;;5.60;3.03;;;;;;;;;;4922871;29;20214;-75
2021/08/14 13:14:15;;;;;;;5.77;3.13;;;;;;;;;;4921081;29;20221;-76
2021/08/14 13:16:42;;;;;;;5.90;2.80;;;;;;;;;;4916438;29;20199;-76
2021/08/14 13:19:10;;;;;;;7.50;3.07;;;;;;;;;;4918219;29;20695;-76
2021/08/14 13:21:37;;;;;;;7.73;3.40;;;;;;;;;;4915940;29;20314;-75
2021/08/14 13:24:04;;;;;;;4.93;2.90;;;;;;;;;;4925073;29;20233;-75
2021/08/14 13:26:31;;;;;;;6.83;3.10;;;;;;;;;;4915612;29;20219;-75
2021/08/14 13:28:59;;;;;;;4.20;2.60;;;;;;;;;;4914079;29;20204;-76
2021/08/14 13:31:27;;;;;;;5.87;2.80;;;;;;;;;;4918355;29;20259;-75
2021/08/14 13:33:55;;;;;;;6.30;3.13;;;;;;;;;;4913320;29;20261;-76
2021/08/14 13:36:22;;;;;;;4.97;2.70;;;;;;;;;;4921927;29;20686;-74
2021/08/14 13:38:49;;;;;;;5.70;3.00;;;;;;;;;;4921516;29;20212;-76
2021/08/14 13:41:17;;;;;;;6.77;3.20;;;;;;;;;;4923091;28;20236;-76
2021/08/14 13:43:45;;;;;;;6.77;2.97;;;;;;;;;;4917839;29;20228;-76
2021/08/14 13:46:12;;;;;;;5.03;3.00;;;;;;;;;;4912497;29;20675;-76
2021/08/14 13:48:40;;;;;;;7.23;3.00;;;;;;;;;;4917309;29;20317;-76
2021/08/14 13:51:09;;;;;;;5.40;2.83;;;;;;;;;;4922397;29;20238;-76
2021/08/14 13:53:36;;;;;;;5.07;2.83;;;;;;;;;;4920499;29;20200;-75
2021/08/14 13:56:04;;;;;;;5.10;3.23;;;;;;;;;;4915684;29;20200;-74
2021/08/14 13:58:31;;;;;;;5.67;3.00;;;;;;;;;;4918701;29;20594;-75
2021/08/14 14:00:59;;;;;;;4.73;3.00;;;;;;;;;;4921776;29;20227;-75
2021/08/14 14:03:26;;;;;;;5.57;2.80;;;;;;;;;;4914651;29;20235;-75
2021/08/14 14:05:55;;;;;;;7.10;3.23;;;;;;;;;;4923498;29;20207;-74
2021/08/14 14:08:22;;;;;;;12.43;3.50;;;;;;;;;;4916308;29;20208;-74
2021/08/14 14:10:49;;;;;;;4.83;2.97;;;;;;;;;;4917826;29;20231;-75
2021/08/14 14:13:16;;;;;;;6.77;3.30;;;;;;;;;;4915643;29;20213;-75
2021/08/14 14:15:43;;;;;;;5.40;2.77;;;;;;;;;;4916527;29;20299;-74
2021/08/14 14:18:10;;;;;;;6.10;3.03;;;;;;;;;;4917134;29;20210;-74
2021/08/14 14:20:39;;;;;;;5.10;2.77;;;;;;;;;;5169949;23;20219;-73
2021/08/14 14:23:08;;;;;;;23.53;7.17;;;;;;;;;;4938247;28;20858;-74
2021/08/14 14:25:35;;;;;;;8.07;3.40;;;;;;;;;;4935109;28;20211;-74
2021/08/14 14:28:02;;;;;;;6.20;3.27;;;;;;;;;;4935233;28;20204;-75
2021/08/14 14:30:29;;;;;;;5.70;3.10;;;;;;;;;;4942739;28;20238;-74
2021/08/14 14:32:56;;;;;;;17.73;5.27;;;;;;;;;;4940794;28;20205;-75
2021/08/14 14:35:23;;;;;;;15.97;4.30;;;;;;;;;;4942488;28;20212;-75
2021/08/14 14:37:51;;;;;;;5.67;2.93;;;;;;;;;;4938881;28;20639;-74
2021/08/14 14:40:25;;;;;;;5.17;3.17;;;;;;;;;;4939441;28;20315;-75
2021/08/14 14:42:52;;;;;;;6.20;3.20;;;;;;;;;;4942960;28;20227;-74
2021/08/14 14:45:20;;;;;;;7.53;3.00;;;;;;;;;;4940496;28;20586;-76
2021/08/14 14:47:47;;;;;;;5.93;3.20;;;;;;;;;;4936390;28;20667;-75
2021/08/14 14:53:14;;;;;;;5.40;2.87;;;;;;;;;;4899483;29;20217;-75
2021/08/14 14:55:42;;;;;;;6.70;3.07;;;;;;;;;;4934243;28;20215;-75
2021/08/14 14:58:10;;;;;;;10.93;3.10;;;;;;;;;;4933844;28;20231;-75
2021/08/14 15:00:37;;;;;;;4.93;3.00;;;;;;;;;;4938409;28;20237;-75
2021/08/14 15:03:10;;;;;;;5.40;3.10;;;;;;;;;;4936425;28;20240;-75
2021/08/14 15:05:37;;;;;;;6.50;3.33;;;;;;;;;;4934328;28;20295;-75
2021/08/14 15:08:05;;;;;;;5.80;2.90;;;;;;;;;;4931751;28;20650;-76
2021/08/14 15:10:33;;;;;;;6.73;3.33;;;;;;;;;;4952989;23;20236;-75